sensor_id;sensor_type;location;lat;lon;timestamp;temperature;humidity
5901;DHT22;2976;49.764;9.796;2023-04-06T00:01:34;-1.30;1.00
5901;DHT22;2976;49.764;9.796;2023-04-06T00:03:59;-1.30;1.00
5901;DHT22;2976;49.764;9.796;2023-04-06T00:06:25;-1.20;1.00
5901;DHT22;2976;49.764;9.796;2023-04-06T00:08:52;-1.20;1.00
5901;DHT22;2976;49.764;9.796;2023-04-06T00:11:17;-1.20;1.00
5901;DHT22;2976;49.764;9.796;2023-04-06T00:13:43;-1.30;1.00
5901;DHT22;2976;49.764;9.796;2023-04-06T00:16:08;-1.40;1.00
5901;DHT22;2976;49.764;9.796;2023-04-06T00:18:34;-1.50;8.20
5901;DHT22;2976;49.764;9.796;2023-04-06T00:21:00;-1.50;25.80
5901;DHT22;2976;49.764;9.796;2023-04-06T00:23:25;-1.60;43.60
5901;DHT22;2976;49.764;9.796;2023-04-06T00:25:51;-1.70;57.10
5901;DHT22;2976;49.764;9.796;2023-04-06T00:28:16;-1.80;73.40
5901;DHT22;2976;49.764;9.796;2023-04-06T00:30:42;-1.90;90.70
5901;DHT22;2976;49.764;9.796;2023-04-06T00:33:08;-1.90;86.30
5901;DHT22;2976;49.764;9.796;2023-04-06T00:35:34;-2.00;98.60
5901;DHT22;2976;49.764;9.796;2023-04-06T00:38:00;-2.00;99.90
5901;DHT22;2976;49.764;9.796;2023-04-06T00:40:26;-2.10;99.90
5901;DHT22;2976;49.764;9.796;2023-04-06T00:42:54;-2.10;99.90
5901;DHT22;2976;49.764;9.796;2023-04-06T00:45:19;-2.10;99.90
5901;DHT22;2976;49.764;9.796;2023-04-06T00:47:45;-2.10;99.90
5901;DHT22;2976;49.764;9.796;2023-04-06T00:50:10;-2.10;99.90
5901;DHT22;2976;49.764;9.796;2023-04-06T00:52:36;-2.20;99.90
5901;DHT22;2976;49.764;9.796;2023-04-06T00:55:02;-2.30;99.90
5901;DHT22;2976;49.764;9.796;2023-04-06T00:57:28;-2.30;99.90
5901;DHT22;2976;49.764;9.796;2023-04-06T00:59:54;-2.30;99.90
5901;DHT22;2976;49.764;9.796;2023-04-06T01:02:19;-2.30;99.90
5901;DHT22;2976;49.764;9.796;2023-04-06T01:04:45;-2.30;99.90
5901;DHT22;2976;49.764;9.796;2023-04-06T01:07:10;-2.30;99.90
5901;DHT22;2976;49.764;9.796;2023-04-06T01:09:36;-2.20;99.90
5901;DHT22;2976;49.764;9.796;2023-04-06T01:12:02;-2.20;99.90
5901;DHT22;2976;49.764;9.796;2023-04-06T01:14:28;-2.30;99.90
5901;DHT22;2976;49.764;9.796;2023-04-06T01:16:57;-2.40;99.90
5901;DHT22;2976;49.764;9.796;2023-04-06T01:19:23;-2.40;99.90
5901;DHT22;2976;49.764;9.796;2023-04-06T01:21:49;-2.50;99.90
5901;DHT22;2976;49.764;9.796;2023-04-06T01:24:15;-2.50;99.90
5901;DHT22;2976;49.764;9.796;2023-04-06T01:26:42;-2.50;99.90
5901;DHT22;2976;49.764;9.796;2023-04-06T01:29:08;-2.50;99.90
5901;DHT22;2976;49.764;9.796;2023-04-06T01:31:33;-2.40;99.90
5901;DHT22;2976;49.764;9.796;2023-04-06T01:33:59;-2.30;99.90
5901;DHT22;2976;49.764;9.796;2023-04-06T01:36:24;-2.20;99.90
5901;DHT22;2976;49.764;9.796;2023-04-06T01:38:50;-2.10;99.90
5901;DHT22;2976;49.764;9.796;2023-04-06T01:41:16;-2.10;99.90
5901;DHT22;2976;49.764;9.796;2023-04-06T01:43:41;-2.10;99.90
5901;DHT22;2976;49.764;9.796;2023-04-06T01:46:07;-2.20;99.90
5901;DHT22;2976;49.764;9.796;2023-04-06T01:48:32;-2.30;99.90
5901;DHT22;2976;49.764;9.796;2023-04-06T01:50:58;-2.40;99.90
5901;DHT22;2976;49.764;9.796;2023-04-06T01:53:23;-2.50;99.90
5901;DHT22;2976;49.764;9.796;2023-04-06T01:55:49;-2.50;99.90
5901;DHT22;2976;49.764;9.796;2023-04-06T01:58:15;-2.70;99.90
5901;DHT22;2976;49.764;9.796;2023-04-06T02:00:40;-2.80;99.90
5901;DHT22;2976;49.764;9.796;2023-04-06T02:03:06;-2.90;99.90
5901;DHT22;2976;49.764;9.796;2023-04-06T02:05:33;-2.90;99.90
5901;DHT22;2976;49.764;9.796;2023-04-06T02:08:06;-2.90;99.90
5901;DHT22;2976;49.764;9.796;2023-04-06T02:10:35;-3.00;99.90
5901;DHT22;2976;49.764;9.796;2023-04-06T02:13:01;-3.00;99.90
5901;DHT22;2976;49.764;9.796;2023-04-06T02:15:27;-3.10;99.90
5901;DHT22;2976;49.764;9.796;2023-04-06T02:17:52;-3.10;99.90
5901;DHT22;2976;49.764;9.796;2023-04-06T02:20:18;-3.10;99.90
5901;DHT22;2976;49.764;9.796;2023-04-06T02:22:44;-3.20;99.90
5901;DHT22;2976;49.764;9.796;2023-04-06T02:25:09;-3.20;99.90
5901;DHT22;2976;49.764;9.796;2023-04-06T02:27:35;-3.30;99.90
5901;DHT22;2976;49.764;9.796;2023-04-06T02:30:02;-3.30;99.90
5901;DHT22;2976;49.764;9.796;2023-04-06T02:32:27;-3.30;99.90
5901;DHT22;2976;49.764;9.796;2023-04-06T02:34:53;-3.20;99.90
5901;DHT22;2976;49.764;9.796;2023-04-06T02:37:18;-3.20;99.90
5901;DHT22;2976;49.764;9.796;2023-04-06T02:39:44;-3.20;99.90
5901;DHT22;2976;49.764;9.796;2023-04-06T02:42:09;-3.10;99.90
5901;DHT22;2976;49.764;9.796;2023-04-06T02:44:35;-3.10;99.90
5901;DHT22;2976;49.764;9.796;2023-04-06T02:47:00;-3.20;99.90
5901;DHT22;2976;49.764;9.796;2023-04-06T02:49:26;-3.20;99.90
5901;DHT22;2976;49.764;9.796;2023-04-06T02:51:51;-3.20;99.90
5901;DHT22;2976;49.764;9.796;2023-04-06T02:54:17;-3.20;99.90
5901;DHT22;2976;49.764;9.796;2023-04-06T02:56:43;-3.20;99.90
5901;DHT22;2976;49.764;9.796;2023-04-06T02:59:08;-3.20;99.90
5901;DHT22;2976;49.764;9.796;2023-04-06T03:01:34;-3.10;99.90
5901;DHT22;2976;49.764;9.796;2023-04-06T03:04:00;-3.10;99.90
5901;DHT22;2976;49.764;9.796;2023-04-06T03:06:25;-3.00;99.90
5901;DHT22;2976;49.764;9.796;2023-04-06T03:08:51;-3.10;99.90
5901;DHT22;2976;49.764;9.796;2023-04-06T03:11:17;-3.10;99.90
5901;DHT22;2976;49.764;9.796;2023-04-06T03:13:42;-3.30;99.90
5901;DHT22;2976;49.764;9.796;2023-04-06T03:16:08;-3.40;99.90
5901;DHT22;2976;49.764;9.796;2023-04-06T03:18:33;-3.40;99.90
5901;DHT22;2976;49.764;9.796;2023-04-06T03:20:59;-3.40;99.90
5901;DHT22;2976;49.764;9.796;2023-04-06T03:23:29;-3.40;99.90
5901;DHT22;2976;49.764;9.796;2023-04-06T03:25:54;-3.40;99.90
5901;DHT22;2976;49.764;9.796;2023-04-06T03:28:20;-3.50;99.90
5901;DHT22;2976;49.764;9.796;2023-04-06T03:30:46;-3.50;99.90
5901;DHT22;2976;49.764;9.796;2023-04-06T03:33:11;-3.50;99.90
5901;DHT22;2976;49.764;9.796;2023-04-06T03:35:37;-3.50;99.90
5901;DHT22;2976;49.764;9.796;2023-04-06T03:38:04;-3.50;99.90
5901;DHT22;2976;49.764;9.796;2023-04-06T03:40:30;-3.40;99.90
5901;DHT22;2976;49.764;9.796;2023-04-06T03:42:56;-3.40;99.90
5901;DHT22;2976;49.764;9.796;2023-04-06T03:45:22;-3.40;99.90
5901;DHT22;2976;49.764;9.796;2023-04-06T03:47:48;-3.40;99.90
5901;DHT22;2976;49.764;9.796;2023-04-06T03:50:13;-3.40;99.90
5901;DHT22;2976;49.764;9.796;2023-04-06T03:52:39;-3.40;99.90
5901;DHT22;2976;49.764;9.796;2023-04-06T03:55:05;-3.40;99.90
5901;DHT22;2976;49.764;9.796;2023-04-06T03:57:31;-3.40;99.90
5901;DHT22;2976;49.764;9.796;2023-04-06T03:59:57;-3.50;99.90
5901;DHT22;2976;49.764;9.796;2023-04-06T04:02:22;-3.60;99.90
5901;DHT22;2976;49.764;9.796;2023-04-06T04:04:48;-3.50;99.90
5901;DHT22;2976;49.764;9.796;2023-04-06T04:07:13;-3.50;99.90
5901;DHT22;2976;49.764;9.796;2023-04-06T04:09:39;-3.50;99.90
5901;DHT22;2976;49.764;9.796;2023-04-06T04:12:05;-3.50;99.90
5901;DHT22;2976;49.764;9.796;2023-04-06T04:14:31;-3.60;99.90
5901;DHT22;2976;49.764;9.796;2023-04-06T04:16:56;-3.70;99.90
5901;DHT22;2976;49.764;9.796;2023-04-06T04:19:22;-3.70;99.90
5901;DHT22;2976;49.764;9.796;2023-04-06T04:21:47;-3.90;99.90
5901;DHT22;2976;49.764;9.796;2023-04-06T04:24:13;-4.00;99.90
5901;DHT22;2976;49.764;9.796;2023-04-06T04:26:39;-4.10;99.90
5901;DHT22;2976;49.764;9.796;2023-04-06T04:29:05;-4.10;99.90
5901;DHT22;2976;49.764;9.796;2023-04-06T04:31:31;-4.20;99.90
5901;DHT22;2976;49.764;9.796;2023-04-06T04:33:57;-4.20;99.90
5901;DHT22;2976;49.764;9.796;2023-04-06T04:36:23;-4.20;99.90
5901;DHT22;2976;49.764;9.796;2023-04-06T04:38:51;-4.20;99.90
5901;DHT22;2976;49.764;9.796;2023-04-06T04:41:16;-4.20;99.90
5901;DHT22;2976;49.764;9.796;2023-04-06T04:43:42;-4.20;99.90
5901;DHT22;2976;49.764;9.796;2023-04-06T04:46:07;-4.20;99.90
5901;DHT22;2976;49.764;9.796;2023-04-06T04:48:33;-4.10;99.90
5901;DHT22;2976;49.764;9.796;2023-04-06T04:50:59;-4.10;99.90
5901;DHT22;2976;49.764;9.796;2023-04-06T04:53:25;-4.00;99.90
5901;DHT22;2976;49.764;9.796;2023-04-06T04:55:51;-4.00;99.90
5901;DHT22;2976;49.764;9.796;2023-04-06T04:58:16;-3.90;99.90
5901;DHT22;2976;49.764;9.796;2023-04-06T05:00:44;-3.80;99.90
5901;DHT22;2976;49.764;9.796;2023-04-06T05:03:16;-3.80;99.90
5901;DHT22;2976;49.764;9.796;2023-04-06T05:05:43;-3.70;99.90
5901;DHT22;2976;49.764;9.796;2023-04-06T05:08:08;-3.70;99.90
5901;DHT22;2976;49.764;9.796;2023-04-06T05:10:34;-3.60;99.90
5901;DHT22;2976;49.764;9.796;2023-04-06T05:13:00;-3.60;99.90
5901;DHT22;2976;49.764;9.796;2023-04-06T05:15:26;-3.60;99.90
5901;DHT22;2976;49.764;9.796;2023-04-06T05:17:51;-3.50;99.90
5901;DHT22;2976;49.764;9.796;2023-04-06T05:20:17;-3.50;99.90
5901;DHT22;2976;49.764;9.796;2023-04-06T05:22:43;-3.40;99.90
5901;DHT22;2976;49.764;9.796;2023-04-06T05:25:08;-3.30;99.90
5901;DHT22;2976;49.764;9.796;2023-04-06T05:27:34;-3.20;99.90
5901;DHT22;2976;49.764;9.796;2023-04-06T05:29:59;-3.20;99.90
5901;DHT22;2976;49.764;9.796;2023-04-06T05:32:25;-3.10;99.90
5901;DHT22;2976;49.764;9.796;2023-04-06T05:34:52;-3.10;99.90
5901;DHT22;2976;49.764;9.796;2023-04-06T05:37:17;-3.00;99.90
5901;DHT22;2976;49.764;9.796;2023-04-06T05:39:43;-2.90;99.90
5901;DHT22;2976;49.764;9.796;2023-04-06T05:42:08;-2.90;99.90
5901;DHT22;2976;49.764;9.796;2023-04-06T05:44:34;-2.90;99.90
5901;DHT22;2976;49.764;9.796;2023-04-06T05:47:00;-2.80;99.90
5901;DHT22;2976;49.764;9.796;2023-04-06T05:49:26;-2.70;99.90
5901;DHT22;2976;49.764;9.796;2023-04-06T05:51:51;-2.70;99.90
5901;DHT22;2976;49.764;9.796;2023-04-06T05:54:17;-2.60;99.90
5901;DHT22;2976;49.764;9.796;2023-04-06T05:56:42;-2.60;99.90
5901;DHT22;2976;49.764;9.796;2023-04-06T05:59:08;-2.60;99.90
5901;DHT22;2976;49.764;9.796;2023-04-06T06:01:34;-2.60;99.90
5901;DHT22;2976;49.764;9.796;2023-04-06T06:04:01;-2.50;99.90
5901;DHT22;2976;49.764;9.796;2023-04-06T06:06:28;-2.10;99.90
5901;DHT22;2976;49.764;9.796;2023-04-06T06:08:55;-1.70;99.90
5901;DHT22;2976;49.764;9.796;2023-04-06T06:11:23;-0.80;99.90
5901;DHT22;2976;49.764;9.796;2023-04-06T06:13:49;0.00;99.90
5901;DHT22;2976;49.764;9.796;2023-04-06T06:16:14;0.90;99.90
5901;DHT22;2976;49.764;9.796;2023-04-06T06:18:40;1.70;99.90
5901;DHT22;2976;49.764;9.796;2023-04-06T06:21:06;2.00;99.90
5901;DHT22;2976;49.764;9.796;2023-04-06T06:23:31;2.40;9.00
5901;DHT22;2976;49.764;9.796;2023-04-06T06:25:57;2.70;1.00
5901;DHT22;2976;49.764;9.796;2023-04-06T06:28:23;2.90;99.90
5901;DHT22;2976;49.764;9.796;2023-04-06T06:30:50;2.70;1.00
5901;DHT22;2976;49.764;9.796;2023-04-06T06:33:16;3.80;1.00
5901;DHT22;2976;49.764;9.796;2023-04-06T06:35:42;4.20;1.00
5901;DHT22;2976;49.764;9.796;2023-04-06T06:38:07;4.30;99.90
5901;DHT22;2976;49.764;9.796;2023-04-06T06:40:33;3.60;99.90
5901;DHT22;2976;49.764;9.796;2023-04-06T06:42:59;2.80;1.00
5901;DHT22;2976;49.764;9.796;2023-04-06T06:45:24;2.40;99.90
5901;DHT22;2976;49.764;9.796;2023-04-06T06:47:50;2.50;99.90
5901;DHT22;2976;49.764;9.796;2023-04-06T06:50:16;3.40;1.00
5901;DHT22;2976;49.764;9.796;2023-04-06T06:52:42;3.60;1.00
5901;DHT22;2976;49.764;9.796;2023-04-06T06:55:09;3.20;1.00
5901;DHT22;2976;49.764;9.796;2023-04-06T06:57:34;3.00;99.90
5901;DHT22;2976;49.764;9.796;2023-04-06T07:00:00;3.30;26.00
5901;DHT22;2976;49.764;9.796;2023-04-06T07:02:25;4.00;99.90
5901;DHT22;2976;49.764;9.796;2023-04-06T07:04:51;4.10;99.90
5901;DHT22;2976;49.764;9.796;2023-04-06T07:07:16;3.60;99.90
5901;DHT22;2976;49.764;9.796;2023-04-06T07:09:42;3.30;96.70
5901;DHT22;2976;49.764;9.796;2023-04-06T07:12:08;3.30;1.00
5901;DHT22;2976;49.764;9.796;2023-04-06T07:14:33;3.20;2.20
5901;DHT22;2976;49.764;9.796;2023-04-06T07:16:59;3.20;1.00
5901;DHT22;2976;49.764;9.796;2023-04-06T07:19:24;3.10;99.90
5901;DHT22;2976;49.764;9.796;2023-04-06T07:21:50;2.90;99.90
5901;DHT22;2976;49.764;9.796;2023-04-06T07:24:15;2.90;99.90
5901;DHT22;2976;49.764;9.796;2023-04-06T07:26:43;3.00;1.00
5901;DHT22;2976;49.764;9.796;2023-04-06T07:29:08;3.10;1.00
5901;DHT22;2976;49.764;9.796;2023-04-06T07:31:34;3.20;99.90
5901;DHT22;2976;49.764;9.796;2023-04-06T07:34:01;3.50;99.90
5901;DHT22;2976;49.764;9.796;2023-04-06T07:36:26;3.50;99.90
5901;DHT22;2976;49.764;9.796;2023-04-06T07:38:52;3.70;1.00
5901;DHT22;2976;49.764;9.796;2023-04-06T07:41:17;4.00;99.90
5901;DHT22;2976;49.764;9.796;2023-04-06T07:43:43;4.60;99.90
5901;DHT22;2976;49.764;9.796;2023-04-06T07:46:08;5.00;1.00
5901;DHT22;2976;49.764;9.796;2023-04-06T07:48:34;5.40;99.90
5901;DHT22;2976;49.764;9.796;2023-04-06T07:51:03;5.30;99.90
5901;DHT22;2976;49.764;9.796;2023-04-06T07:53:29;5.70;99.90
5901;DHT22;2976;49.764;9.796;2023-04-06T07:55:56;5.60;1.00
5901;DHT22;2976;49.764;9.796;2023-04-06T07:58:21;5.60;1.00
5901;DHT22;2976;49.764;9.796;2023-04-06T08:00:47;6.20;1.00
5901;DHT22;2976;49.764;9.796;2023-04-06T08:03:12;6.50;99.90
5901;DHT22;2976;49.764;9.796;2023-04-06T08:05:38;7.40;99.90
5901;DHT22;2976;49.764;9.796;2023-04-06T08:08:04;8.20;1.00
5901;DHT22;2976;49.764;9.796;2023-04-06T08:10:32;8.80;99.90
5901;DHT22;2976;49.764;9.796;2023-04-06T08:12:59;9.50;1.00
5901;DHT22;2976;49.764;9.796;2023-04-06T08:15:25;9.80;1.00
5901;DHT22;2976;49.764;9.796;2023-04-06T08:17:51;10.00;99.90
5901;DHT22;2976;49.764;9.796;2023-04-06T08:20:17;10.10;99.90
5901;DHT22;2976;49.764;9.796;2023-04-06T08:22:42;10.30;1.00
5901;DHT22;2976;49.764;9.796;2023-04-06T08:25:08;10.90;99.90
5901;DHT22;2976;49.764;9.796;2023-04-06T08:27:33;11.00;99.90
5901;DHT22;2976;49.764;9.796;2023-04-06T08:29:59;11.30;99.90
5901;DHT22;2976;49.764;9.796;2023-04-06T08:32:25;11.40;99.90
5901;DHT22;2976;49.764;9.796;2023-04-06T08:34:53;11.80;99.90
5901;DHT22;2976;49.764;9.796;2023-04-06T08:37:19;11.70;99.90
5901;DHT22;2976;49.764;9.796;2023-04-06T08:39:44;11.90;99.90
5901;DHT22;2976;49.764;9.796;2023-04-06T08:42:20;11.80;99.90
5901;DHT22;2976;49.764;9.796;2023-04-06T08:44:47;11.70;99.90
5901;DHT22;2976;49.764;9.796;2023-04-06T08:47:13;11.90;99.90
5901;DHT22;2976;49.764;9.796;2023-04-06T08:49:39;11.30;99.90
5901;DHT22;2976;49.764;9.796;2023-04-06T08:52:08;10.40;99.90
5901;DHT22;2976;49.764;9.796;2023-04-06T08:54:34;10.20;99.90
5901;DHT22;2976;49.764;9.796;2023-04-06T08:57:00;11.00;99.90
5901;DHT22;2976;49.764;9.796;2023-04-06T08:59:26;11.70;99.90
5901;DHT22;2976;49.764;9.796;2023-04-06T09:01:53;12.30;99.90
5901;DHT22;2976;49.764;9.796;2023-04-06T09:04:20;12.30;99.90
5901;DHT22;2976;49.764;9.796;2023-04-06T09:06:45;12.00;99.90
5901;DHT22;2976;49.764;9.796;2023-04-06T09:09:11;11.40;99.90
5901;DHT22;2976;49.764;9.796;2023-04-06T09:11:49;12.00;99.90
5901;DHT22;2976;49.764;9.796;2023-04-06T09:14:15;12.50;99.90
5901;DHT22;2976;49.764;9.796;2023-04-06T09:16:44;11.60;99.90
5901;DHT22;2976;49.764;9.796;2023-04-06T09:19:10;11.70;99.90
5901;DHT22;2976;49.764;9.796;2023-04-06T09:21:37;12.70;99.90
5901;DHT22;2976;49.764;9.796;2023-04-06T09:24:03;13.00;99.90
5901;DHT22;2976;49.764;9.796;2023-04-06T09:26:29;13.30;99.90
5901;DHT22;2976;49.764;9.796;2023-04-06T09:28:56;13.80;99.90
5901;DHT22;2976;49.764;9.796;2023-04-06T09:31:28;14.00;99.90
5901;DHT22;2976;49.764;9.796;2023-04-06T09:33:55;14.60;99.90
5901;DHT22;2976;49.764;9.796;2023-04-06T09:36:35;14.70;99.90
5901;DHT22;2976;49.764;9.796;2023-04-06T09:39:04;15.00;99.90
5901;DHT22;2976;49.764;9.796;2023-04-06T09:41:34;14.70;99.90
5901;DHT22;2976;49.764;9.796;2023-04-06T09:44:07;14.70;99.90
5901;DHT22;2976;49.764;9.796;2023-04-06T09:46:41;14.10;99.90
5901;DHT22;2976;49.764;9.796;2023-04-06T09:49:08;14.10;99.90
5901;DHT22;2976;49.764;9.796;2023-04-06T09:52:02;14.20;99.90
5901;DHT22;2976;49.764;9.796;2023-04-06T09:54:29;14.80;99.90
5901;DHT22;2976;49.764;9.796;2023-04-06T09:57:25;14.60;99.90
5901;DHT22;2976;49.764;9.796;2023-04-06T10:02:35;14.50;99.90
5901;DHT22;2976;49.764;9.796;2023-04-06T10:05:22;14.80;99.90
5901;DHT22;2976;49.764;9.796;2023-04-06T10:07:54;14.90;99.90
5901;DHT22;2976;49.764;9.796;2023-04-06T10:10:21;13.90;99.90
5901;DHT22;2976;49.764;9.796;2023-04-06T10:12:48;12.90;99.90
5901;DHT22;2976;49.764;9.796;2023-04-06T10:15:14;12.60;99.90
5901;DHT22;2976;49.764;9.796;2023-04-06T10:17:40;13.10;99.90
5901;DHT22;2976;49.764;9.796;2023-04-06T10:23:12;14.20;99.90
5901;DHT22;2976;49.764;9.796;2023-04-06T10:25:56;14.80;99.90
5901;DHT22;2976;49.764;9.796;2023-04-06T10:28:23;15.20;99.90
5901;DHT22;2976;49.764;9.796;2023-04-06T10:30:48;15.50;99.90
5901;DHT22;2976;49.764;9.796;2023-04-06T10:33:16;15.40;99.90
5901;DHT22;2976;49.764;9.796;2023-04-06T10:35:41;14.30;99.90
5901;DHT22;2976;49.764;9.796;2023-04-06T10:38:07;13.90;99.90
5901;DHT22;2976;49.764;9.796;2023-04-06T10:40:36;13.20;99.90
5901;DHT22;2976;49.764;9.796;2023-04-06T10:43:12;12.90;99.90
5901;DHT22;2976;49.764;9.796;2023-04-06T10:45:38;13.00;99.90
5901;DHT22;2976;49.764;9.796;2023-04-06T10:48:18;12.70;99.90
5901;DHT22;2976;49.764;9.796;2023-04-06T10:50:51;12.70;99.90
5901;DHT22;2976;49.764;9.796;2023-04-06T10:53:24;13.20;99.90
5901;DHT22;2976;49.764;9.796;2023-04-06T10:55:51;13.70;99.90
5901;DHT22;2976;49.764;9.796;2023-04-06T10:58:17;13.60;99.90
5901;DHT22;2976;49.764;9.796;2023-04-06T11:00:47;13.70;99.90
5901;DHT22;2976;49.764;9.796;2023-04-06T11:03:14;14.10;99.90
5901;DHT22;2976;49.764;9.796;2023-04-06T11:05:44;13.70;99.90
5901;DHT22;2976;49.764;9.796;2023-04-06T11:08:09;13.80;99.90
5901;DHT22;2976;49.764;9.796;2023-04-06T11:10:35;13.90;99.90
5901;DHT22;2976;49.764;9.796;2023-04-06T11:13:01;14.30;99.90
5901;DHT22;2976;49.764;9.796;2023-04-06T11:15:26;14.40;99.90
5901;DHT22;2976;49.764;9.796;2023-04-06T11:17:52;14.70;99.90
5901;DHT22;2976;49.764;9.796;2023-04-06T11:20:17;14.70;99.90
5901;DHT22;2976;49.764;9.796;2023-04-06T11:22:51;14.70;99.90
5901;DHT22;2976;49.764;9.796;2023-04-06T11:25:18;14.70;99.90
5901;DHT22;2976;49.764;9.796;2023-04-06T11:27:45;14.50;99.90
5901;DHT22;2976;49.764;9.796;2023-04-06T11:30:12;14.70;99.90
5901;DHT22;2976;49.764;9.796;2023-04-06T11:32:45;15.00;99.90
5901;DHT22;2976;49.764;9.796;2023-04-06T11:35:13;15.00;99.90
5901;DHT22;2976;49.764;9.796;2023-04-06T11:37:44;15.30;99.90
5901;DHT22;2976;49.764;9.796;2023-04-06T11:40:10;15.50;99.90
5901;DHT22;2976;49.764;9.796;2023-04-06T11:42:35;15.70;99.90
5901;DHT22;2976;49.764;9.796;2023-04-06T11:45:01;15.70;99.90
5901;DHT22;2976;49.764;9.796;2023-04-06T11:47:35;15.10;99.90
5901;DHT22;2976;49.764;9.796;2023-04-06T11:50:10;15.00;99.90
5901;DHT22;2976;49.764;9.796;2023-04-06T11:52:36;15.20;99.90
5901;DHT22;2976;49.764;9.796;2023-04-06T11:57:39;15.90;99.90
5901;DHT22;2976;49.764;9.796;2023-04-06T12:00:06;15.90;99.90
5901;DHT22;2976;49.764;9.796;2023-04-06T12:02:31;15.80;99.90
5901;DHT22;2976;49.764;9.796;2023-04-06T12:04:57;15.90;99.90
5901;DHT22;2976;49.764;9.796;2023-04-06T12:07:23;16.10;99.90
5901;DHT22;2976;49.764;9.796;2023-04-06T12:09:48;16.10;99.90
5901;DHT22;2976;49.764;9.796;2023-04-06T12:12:14;16.10;99.90
5901;DHT22;2976;49.764;9.796;2023-04-06T12:14:40;16.00;99.90
5901;DHT22;2976;49.764;9.796;2023-04-06T12:17:05;15.90;99.90
5901;DHT22;2976;49.764;9.796;2023-04-06T12:19:31;15.70;99.90
5901;DHT22;2976;49.764;9.796;2023-04-06T12:21:57;15.20;99.90
5901;DHT22;2976;49.764;9.796;2023-04-06T12:24:23;14.70;99.90
5901;DHT22;2976;49.764;9.796;2023-04-06T12:26:48;14.60;99.90
5901;DHT22;2976;49.764;9.796;2023-04-06T12:29:14;14.40;99.90
5901;DHT22;2976;49.764;9.796;2023-04-06T12:31:40;14.40;99.90
5901;DHT22;2976;49.764;9.796;2023-04-06T12:34:08;14.00;99.90
5901;DHT22;2976;49.764;9.796;2023-04-06T12:36:34;13.80;99.90
5901;DHT22;2976;49.764;9.796;2023-04-06T12:39:01;13.60;99.90
5901;DHT22;2976;49.764;9.796;2023-04-06T12:41:27;13.80;99.90
5901;DHT22;2976;49.764;9.796;2023-04-06T12:43:53;13.90;99.90
5901;DHT22;2976;49.764;9.796;2023-04-06T12:46:19;13.80;99.90
5901;DHT22;2976;49.764;9.796;2023-04-06T12:48:45;13.20;99.90
5901;DHT22;2976;49.764;9.796;2023-04-06T12:51:10;13.10;99.90
5901;DHT22;2976;49.764;9.796;2023-04-06T12:53:36;13.30;99.90
5901;DHT22;2976;49.764;9.796;2023-04-06T12:56:09;13.80;99.90
5901;DHT22;2976;49.764;9.796;2023-04-06T12:58:36;14.10;99.90
5901;DHT22;2976;49.764;9.796;2023-04-06T13:01:06;14.30;99.90
5901;DHT22;2976;49.764;9.796;2023-04-06T13:03:31;14.30;99.90
5901;DHT22;2976;49.764;9.796;2023-04-06T13:05:59;14.20;99.90
5901;DHT22;2976;49.764;9.796;2023-04-06T13:08:25;13.70;99.90
5901;DHT22;2976;49.764;9.796;2023-04-06T13:10:51;13.40;99.90
5901;DHT22;2976;49.764;9.796;2023-04-06T13:13:23;12.90;99.90
5901;DHT22;2976;49.764;9.796;2023-04-06T13:15:49;12.30;99.90
5901;DHT22;2976;49.764;9.796;2023-04-06T13:18:15;12.50;99.90
5901;DHT22;2976;49.764;9.796;2023-04-06T13:20:41;12.70;99.90
5901;DHT22;2976;49.764;9.796;2023-04-06T13:23:07;12.70;99.90
5901;DHT22;2976;49.764;9.796;2023-04-06T13:25:33;12.60;99.90
5901;DHT22;2976;49.764;9.796;2023-04-06T13:27:58;12.40;99.90
5901;DHT22;2976;49.764;9.796;2023-04-06T13:30:24;12.80;99.90
5901;DHT22;2976;49.764;9.796;2023-04-06T13:32:50;13.10;99.90
5901;DHT22;2976;49.764;9.796;2023-04-06T13:35:16;13.30;99.90
5901;DHT22;2976;49.764;9.796;2023-04-06T13:37:42;13.50;99.90
5901;DHT22;2976;49.764;9.796;2023-04-06T13:40:08;13.80;99.90
5901;DHT22;2976;49.764;9.796;2023-04-06T13:42:34;14.10;99.90
5901;DHT22;2976;49.764;9.796;2023-04-06T13:45:01;14.40;99.90
5901;DHT22;2976;49.764;9.796;2023-04-06T13:47:26;14.50;99.90
5901;DHT22;2976;49.764;9.796;2023-04-06T13:49:52;14.50;99.90
5901;DHT22;2976;49.764;9.796;2023-04-06T13:52:18;14.50;99.90
5901;DHT22;2976;49.764;9.796;2023-04-06T13:54:44;14.40;99.90
5901;DHT22;2976;49.764;9.796;2023-04-06T13:57:11;14.20;99.90
5901;DHT22;2976;49.764;9.796;2023-04-06T13:59:38;14.10;99.90
5901;DHT22;2976;49.764;9.796;2023-04-06T14:02:07;14.00;99.90
5901;DHT22;2976;49.764;9.796;2023-04-06T14:04:33;13.80;99.90
5901;DHT22;2976;49.764;9.796;2023-04-06T14:07:00;13.80;99.90
5901;DHT22;2976;49.764;9.796;2023-04-06T14:09:29;13.80;99.90
5901;DHT22;2976;49.764;9.796;2023-04-06T14:11:56;13.50;99.90
5901;DHT22;2976;49.764;9.796;2023-04-06T14:14:22;13.10;99.90
5901;DHT22;2976;49.764;9.796;2023-04-06T14:16:48;12.80;99.90
5901;DHT22;2976;49.764;9.796;2023-04-06T14:19:15;12.70;99.90
5901;DHT22;2976;49.764;9.796;2023-04-06T14:21:43;12.40;99.90
5901;DHT22;2976;49.764;9.796;2023-04-06T14:24:09;12.10;99.90
5901;DHT22;2976;49.764;9.796;2023-04-06T14:26:35;12.20;99.90
5901;DHT22;2976;49.764;9.796;2023-04-06T14:29:01;12.40;99.90
5901;DHT22;2976;49.764;9.796;2023-04-06T14:31:27;12.40;99.90
5901;DHT22;2976;49.764;9.796;2023-04-06T14:33:53;12.40;99.90
5901;DHT22;2976;49.764;9.796;2023-04-06T14:36:19;12.50;99.90
5901;DHT22;2976;49.764;9.796;2023-04-06T14:38:44;12.50;99.90
5901;DHT22;2976;49.764;9.796;2023-04-06T14:41:19;12.60;99.90
5901;DHT22;2976;49.764;9.796;2023-04-06T14:43:46;12.50;99.90
5901;DHT22;2976;49.764;9.796;2023-04-06T14:46:11;12.60;99.90
5901;DHT22;2976;49.764;9.796;2023-04-06T14:48:37;12.60;99.90
5901;DHT22;2976;49.764;9.796;2023-04-06T14:51:02;12.60;99.90
5901;DHT22;2976;49.764;9.796;2023-04-06T14:53:28;12.50;99.90
5901;DHT22;2976;49.764;9.796;2023-04-06T14:55:55;12.60;99.90
5901;DHT22;2976;49.764;9.796;2023-04-06T14:58:21;12.70;99.90
5901;DHT22;2976;49.764;9.796;2023-04-06T15:00:47;12.90;99.90
5901;DHT22;2976;49.764;9.796;2023-04-06T15:03:13;12.90;99.90
5901;DHT22;2976;49.764;9.796;2023-04-06T15:05:39;13.00;99.90
5901;DHT22;2976;49.764;9.796;2023-04-06T15:08:05;13.00;99.90
5901;DHT22;2976;49.764;9.796;2023-04-06T15:10:32;12.90;99.90
5901;DHT22;2976;49.764;9.796;2023-04-06T15:12:58;12.90;99.90
5901;DHT22;2976;49.764;9.796;2023-04-06T15:15:23;12.80;99.90
5901;DHT22;2976;49.764;9.796;2023-04-06T15:17:49;12.70;99.90
5901;DHT22;2976;49.764;9.796;2023-04-06T15:20:14;12.70;99.90
5901;DHT22;2976;49.764;9.796;2023-04-06T15:22:40;12.70;99.90
5901;DHT22;2976;49.764;9.796;2023-04-06T15:25:06;12.80;99.90
5901;DHT22;2976;49.764;9.796;2023-04-06T15:27:31;12.80;99.90
5901;DHT22;2976;49.764;9.796;2023-04-06T15:29:57;12.70;99.90
5901;DHT22;2976;49.764;9.796;2023-04-06T15:32:24;12.60;99.90
5901;DHT22;2976;49.764;9.796;2023-04-06T15:34:50;12.50;99.90
5901;DHT22;2976;49.764;9.796;2023-04-06T15:37:15;12.30;99.90
5901;DHT22;2976;49.764;9.796;2023-04-06T15:39:41;12.30;99.90
5901;DHT22;2976;49.764;9.796;2023-04-06T15:42:08;12.20;99.90
5901;DHT22;2976;49.764;9.796;2023-04-06T15:44:33;12.20;99.90
5901;DHT22;2976;49.764;9.796;2023-04-06T15:46:59;12.20;99.90
5901;DHT22;2976;49.764;9.796;2023-04-06T15:49:24;12.20;99.90
5901;DHT22;2976;49.764;9.796;2023-04-06T15:51:50;12.20;99.90
5901;DHT22;2976;49.764;9.796;2023-04-06T15:54:16;12.20;99.90
5901;DHT22;2976;49.764;9.796;2023-04-06T15:56:44;12.10;99.90
5901;DHT22;2976;49.764;9.796;2023-04-06T15:59:10;12.10;99.90
5901;DHT22;2976;49.764;9.796;2023-04-06T16:01:35;12.10;99.90
5901;DHT22;2976;49.764;9.796;2023-04-06T16:04:01;12.10;99.90
5901;DHT22;2976;49.764;9.796;2023-04-06T16:06:27;11.90;99.90
5901;DHT22;2976;49.764;9.796;2023-04-06T16:08:52;11.90;99.90